createdAt,value
2018-11-03T00:02:05.090Z,9.60
2018-11-03T00:04:32.252Z,8.80
2018-11-03T00:06:59.437Z,10.07
2018-11-03T00:09:26.604Z,9.27
2018-11-03T00:11:53.793Z,9.37
2018-11-03T00:14:20.973Z,9.70
2018-11-03T00:16:48.188Z,9.40
2018-11-03T00:19:15.385Z,10.10
2018-11-03T00:21:42.568Z,9.10
2018-11-03T00:24:09.722Z,9.17
2018-11-03T00:26:36.968Z,9.10
2018-11-03T00:29:04.137Z,9.10
2018-11-03T00:31:31.318Z,8.60
2018-11-03T00:33:58.477Z,8.97
2018-11-03T00:36:25.669Z,9.30
2018-11-03T00:38:52.845Z,9.83
2018-11-03T00:41:20.029Z,9.27
2018-11-03T00:43:47.260Z,9.00
2018-11-03T00:46:14.430Z,9.50
2018-11-03T00:48:41.600Z,8.43
2018-11-03T00:51:08.806Z,9.00
2018-11-03T00:53:36.020Z,8.63
2018-11-03T00:56:03.208Z,8.63
2018-11-03T00:58:30.377Z,8.70
2018-11-03T01:00:57.560Z,8.43
2018-11-03T01:03:24.753Z,8.77
2018-11-03T01:05:51.945Z,9.10
2018-11-03T01:08:19.120Z,9.17
2018-11-03T01:10:46.309Z,8.60
2018-11-03T01:13:13.494Z,8.40
2018-11-03T01:15:40.666Z,8.00
2018-11-03T01:18:07.833Z,7.53
2018-11-03T01:20:35.013Z,7.90
2018-11-03T01:23:02.216Z,8.20
2018-11-03T01:25:29.417Z,8.07
2018-11-03T01:27:56.647Z,8.57
2018-11-03T01:30:23.809Z,8.20
2018-11-03T01:32:50.988Z,7.80
2018-11-03T01:35:18.162Z,7.80
2018-11-03T01:37:45.353Z,8.60
2018-11-03T01:40:13.240Z,7.87
2018-11-03T01:42:40.483Z,8.27
2018-11-03T01:45:07.830Z,7.90
2018-11-03T01:47:35.397Z,7.93
2018-11-03T01:50:02.673Z,8.50
2018-11-03T01:52:29.808Z,8.43
2018-11-03T01:54:57.001Z,8.60
2018-11-03T01:57:24.172Z,8.33
2018-11-03T01:59:51.352Z,8.73
2018-11-03T02:02:18.532Z,7.57
2018-11-03T02:04:45.747Z,7.13
2018-11-03T02:07:13.020Z,8.07
2018-11-03T02:09:40.223Z,8.30
2018-11-03T02:12:07.416Z,7.80
2018-11-03T02:14:34.601Z,7.87
2018-11-03T02:17:01.755Z,7.83
2018-11-03T02:19:29.934Z,8.40
2018-11-03T02:21:57.110Z,7.17
2018-11-03T02:24:24.824Z,8.07
2018-11-03T02:26:51.995Z,7.27
2018-11-03T02:29:19.185Z,7.77
2018-11-03T02:31:46.344Z,8.30
2018-11-03T02:34:13.602Z,8.33
2018-11-03T02:36:40.786Z,7.73
2018-11-03T02:39:08.605Z,7.80
2018-11-03T02:41:35.832Z,7.93
2018-11-03T02:44:03.080Z,6.73
2018-11-03T02:46:30.322Z,7.30
2018-11-03T02:48:57.455Z,7.70
2018-11-03T02:51:24.653Z,8.10
2018-11-03T02:53:51.822Z,7.40
2018-11-03T02:56:19.005Z,7.83
2018-11-03T02:58:46.189Z,7.40
2018-11-03T03:01:13.375Z,8.03
2018-11-03T03:03:40.573Z,6.97
2018-11-03T03:06:07.764Z,7.40
2018-11-03T03:08:34.929Z,7.30
2018-11-03T03:11:02.180Z,6.93
2018-11-03T03:13:29.361Z,7.47
2018-11-03T03:15:56.559Z,7.40
2018-11-03T03:18:23.718Z,7.73
2018-11-03T03:20:50.900Z,7.73
2018-11-03T03:23:18.081Z,7.60
2018-11-03T03:25:45.265Z,7.37
2018-11-03T03:28:12.453Z,7.33
2018-11-03T03:30:39.645Z,7.47
2018-11-03T03:33:06.816Z,7.23
2018-11-03T03:35:33.995Z,7.37
2018-11-03T03:38:01.224Z,6.90
2018-11-03T03:40:28.412Z,7.17
2018-11-03T03:42:55.627Z,7.53
2018-11-03T03:45:22.781Z,7.60
2018-11-03T03:47:49.961Z,6.73
2018-11-03T03:50:17.142Z,7.83
2018-11-03T03:52:44.315Z,6.80
2018-11-03T03:55:11.504Z,6.97
2018-11-03T03:57:38.662Z,6.70
2018-11-03T04:00:07.175Z,6.60
2018-11-03T04:02:34.425Z,6.27
2018-11-03T04:05:01.635Z,6.43
2018-11-03T04:07:28.805Z,6.00
2018-11-03T04:09:56.078Z,6.23
2018-11-03T04:12:23.253Z,6.63
2018-11-03T04:14:50.529Z,5.53
2018-11-03T04:17:17.655Z,6.20
2018-11-03T04:19:44.860Z,5.93
2018-11-03T04:22:12.029Z,6.07
2018-11-03T04:24:39.216Z,6.03
2018-11-03T04:27:06.502Z,5.53
2018-11-03T04:29:33.688Z,5.77
2018-11-03T04:32:00.851Z,5.80
2018-11-03T04:34:28.022Z,6.37
2018-11-03T04:36:55.221Z,6.00
2018-11-03T04:39:22.396Z,5.87
2018-11-03T04:41:49.597Z,5.60
2018-11-03T04:44:16.785Z,5.70
2018-11-03T04:46:44.015Z,5.27
2018-11-03T04:49:11.184Z,6.00
2018-11-03T04:51:38.360Z,5.77
2018-11-03T04:54:05.545Z,6.10
2018-11-03T04:56:32.720Z,5.70
2018-11-03T04:58:59.900Z,6.03
2018-11-03T05:01:27.092Z,5.50
2018-11-03T05:03:54.256Z,6.07
2018-11-03T05:06:21.432Z,6.00
2018-11-03T05:08:48.661Z,5.70
2018-11-03T05:11:15.881Z,5.90
2018-11-03T05:13:43.060Z,6.03
2018-11-03T05:16:10.260Z,5.80
2018-11-03T05:18:37.508Z,6.00
2018-11-03T05:21:05.027Z,5.40
2018-11-03T05:23:32.153Z,6.60
2018-11-03T05:25:59.332Z,5.13
2018-11-03T05:28:26.559Z,5.57
2018-11-03T05:30:53.808Z,5.43
2018-11-03T05:33:20.985Z,5.20
2018-11-03T05:35:48.177Z,5.17
2018-11-03T05:38:15.353Z,5.40
2018-11-03T05:40:42.564Z,6.30
2018-11-03T05:43:09.741Z,5.93
2018-11-03T05:45:36.912Z,5.87
2018-11-03T05:48:04.092Z,6.10
2018-11-03T05:50:31.249Z,6.20
2018-11-03T05:52:59.267Z,5.70
2018-11-03T05:55:26.416Z,6.27
2018-11-03T05:57:53.600Z,5.80
2018-11-03T06:00:20.766Z,6.17
2018-11-03T06:02:47.944Z,5.73
2018-11-03T06:05:15.124Z,5.53
2018-11-03T06:07:42.302Z,5.70
2018-11-03T06:10:09.686Z,6.47
2018-11-03T06:12:36.992Z,5.97
2018-11-03T06:15:04.400Z,6.00
2018-11-03T06:17:31.581Z,6.13
2018-11-03T06:19:58.812Z,6.07
2018-11-03T06:22:28.288Z,5.90
2018-11-03T06:24:55.448Z,5.97
2018-11-03T06:27:22.634Z,6.57
2018-11-03T06:29:49.785Z,5.57
2018-11-03T06:32:16.961Z,5.43
2018-11-03T06:34:44.127Z,6.30
2018-11-03T06:37:11.315Z,6.73
2018-11-03T06:39:38.477Z,6.67
2018-11-03T06:42:05.674Z,5.83
2018-11-03T06:44:32.871Z,6.57
2018-11-03T06:47:00.018Z,6.03
2018-11-03T06:49:27.296Z,6.53
2018-11-03T06:51:54.460Z,6.03
2018-11-03T06:54:21.728Z,5.93
2018-11-03T06:56:48.912Z,5.97
2018-11-03T06:59:16.886Z,5.67
2018-11-03T07:01:44.052Z,6.00
2018-11-03T07:04:11.225Z,6.53
2018-11-03T07:06:38.400Z,6.30
2018-11-03T07:09:06.773Z,8.53
2018-11-03T07:11:34.051Z,6.33
2018-11-03T07:14:01.154Z,6.17
2018-11-03T07:16:28.383Z,7.83
2018-11-03T07:18:55.576Z,7.30
2018-11-03T07:21:22.782Z,6.20
2018-11-03T07:23:49.912Z,6.63
2018-11-03T07:26:17.097Z,7.60
2018-11-03T07:28:44.252Z,7.23
2018-11-03T07:31:11.425Z,9.80
2018-11-03T07:33:38.813Z,7.97
2018-11-03T07:36:06.006Z,9.47
2018-11-03T07:38:33.199Z,7.03
2018-11-03T07:41:00.479Z,6.70
2018-11-03T07:43:27.554Z,6.40
2018-11-03T07:45:54.730Z,6.20
2018-11-03T07:48:22.406Z,5.63
2018-11-03T07:50:49.450Z,5.73
2018-11-03T07:53:16.624Z,5.73
2018-11-03T07:55:43.801Z,6.00
2018-11-03T07:58:10.992Z,6.10
2018-11-03T08:00:38.215Z,6.07
2018-11-03T08:03:05.372Z,7.00
2018-11-03T08:05:32.630Z,7.17
2018-11-03T08:07:59.813Z,7.00
2018-11-03T08:10:26.988Z,6.47
2018-11-03T08:12:54.156Z,6.93
2018-11-03T08:15:21.338Z,7.30
2018-11-03T08:17:48.540Z,6.50
2018-11-03T08:20:15.732Z,7.07
2018-11-03T08:22:42.918Z,6.43
2018-11-03T08:25:10.100Z,6.70
2018-11-03T08:27:37.314Z,6.50
2018-11-03T08:30:07.017Z,6.60
2018-11-03T08:32:34.210Z,5.67
2018-11-03T08:35:01.380Z,6.33
2018-11-03T08:37:28.561Z,6.23
2018-11-03T08:39:55.805Z,6.93
2018-11-03T08:42:22.987Z,6.47
2018-11-03T08:44:50.148Z,6.77
2018-11-03T08:47:17.321Z,7.37
2018-11-03T08:49:44.485Z,7.07
2018-11-03T08:52:11.652Z,6.30
2018-11-03T08:54:38.819Z,7.13
2018-11-03T08:57:05.953Z,7.60
2018-11-03T08:59:33.203Z,6.93
2018-11-03T09:02:00.327Z,7.77
2018-11-03T09:04:27.485Z,8.90
2018-11-03T09:06:54.708Z,8.67
2018-11-03T09:09:21.802Z,7.03
2018-11-03T09:11:48.972Z,7.27
2018-11-03T09:14:16.176Z,7.33
2018-11-03T09:16:43.340Z,7.20
2018-11-03T09:19:10.540Z,7.47
2018-11-03T09:21:37.732Z,8.33
2018-11-03T09:24:04.965Z,9.10
2018-11-03T09:26:32.114Z,9.27
2018-11-03T09:28:59.276Z,8.00
2018-11-03T09:31:26.433Z,8.03
2018-11-03T09:33:53.649Z,8.53
2018-11-03T09:36:20.816Z,8.37
2018-11-03T09:38:48.184Z,7.80
2018-11-03T09:41:16.581Z,7.57
2018-11-03T09:43:44.642Z,7.90
2018-11-03T09:46:11.832Z,8.43
2018-11-03T09:48:39.021Z,7.87
2018-11-03T09:51:06.269Z,8.93
2018-11-03T09:53:33.360Z,8.20
2018-11-03T09:56:00.528Z,13.57
2018-11-03T09:58:27.695Z,8.80
2018-11-03T10:00:54.829Z,12.53
2018-11-03T10:03:21.973Z,8.70
2018-11-03T10:05:49.145Z,8.60
2018-11-03T10:08:16.842Z,8.53
2018-11-03T10:10:44.009Z,8.20
2018-11-03T10:13:11.184Z,8.03
2018-11-03T10:15:38.396Z,8.73
2018-11-03T10:18:05.528Z,9.27
2018-11-03T10:20:32.725Z,8.40
2018-11-03T10:22:59.966Z,8.80
2018-11-03T10:25:27.087Z,8.97
2018-11-03T10:27:54.249Z,9.67
2018-11-03T10:30:21.408Z,8.80
2018-11-03T10:32:48.561Z,10.33
2018-11-03T10:35:15.777Z,10.13
2018-11-03T10:37:43.163Z,9.43
2018-11-03T10:40:11.579Z,9.17
2018-11-03T10:42:38.829Z,10.20
2018-11-03T10:45:06.594Z,9.47
2018-11-03T10:47:33.790Z,10.23
2018-11-03T10:50:00.974Z,10.27
2018-11-03T10:52:28.152Z,9.93
2018-11-03T10:54:55.345Z,10.30
2018-11-03T10:57:22.532Z,10.30
2018-11-03T10:59:49.696Z,10.27
2018-11-03T11:02:22.493Z,11.30
2018-11-03T11:04:55.420Z,9.53
2018-11-03T11:07:28.328Z,10.32
2018-11-03T11:10:01.250Z,10.08
2018-11-03T11:12:34.164Z,10.50
2018-11-03T11:15:01.354Z,9.83
2018-11-03T11:17:28.520Z,10.53
2018-11-03T11:19:55.826Z,10.45
2018-11-03T11:22:23.029Z,11.83
2018-11-03T11:24:50.298Z,10.70
2018-11-03T11:27:17.380Z,11.63
2018-11-03T11:29:44.569Z,10.75
2018-11-03T11:32:11.725Z,11.28
2018-11-03T11:34:38.921Z,11.77
2018-11-03T11:37:06.140Z,11.50
2018-11-03T11:39:33.350Z,11.12
2018-11-03T11:42:00.553Z,11.10
2018-11-03T11:44:27.730Z,11.63
2018-11-03T11:46:54.903Z,11.30
2018-11-03T11:49:22.096Z,10.78
2018-11-03T11:51:49.274Z,11.73
2018-11-03T11:54:16.450Z,11.95
2018-11-03T11:56:43.616Z,11.60
2018-11-03T11:59:10.796Z,10.80
2018-11-03T12:01:37.958Z,11.20
2018-11-03T12:04:05.380Z,10.95
2018-11-03T12:06:32.494Z,11.88
2018-11-03T12:08:59.694Z,10.68
2018-11-03T12:11:26.878Z,11.68
2018-11-03T12:13:54.013Z,12.15
2018-11-03T12:16:21.308Z,11.25
2018-11-03T12:18:48.349Z,10.90
2018-11-03T12:21:15.531Z,12.35
2018-11-03T12:23:42.737Z,10.98
2018-11-03T12:26:09.907Z,11.65
2018-11-03T12:28:37.085Z,11.43
2018-11-03T12:31:04.529Z,10.53
2018-11-03T12:33:31.721Z,10.78
2018-11-03T12:35:58.996Z,10.88
2018-11-03T12:38:26.146Z,11.18
2018-11-03T12:40:53.397Z,11.90
2018-11-03T12:43:20.597Z,11.88
2018-11-03T12:45:47.768Z,10.68
2018-11-03T12:48:15.009Z,11.57
2018-11-03T12:50:42.168Z,12.13
2018-11-03T12:53:09.410Z,11.50
2018-11-03T12:55:36.521Z,11.48
2018-11-03T12:58:03.706Z,11.43
2018-11-03T13:00:30.840Z,11.53
2018-11-03T13:02:58.003Z,12.28
2018-11-03T13:05:25.236Z,11.83
2018-11-03T13:07:52.368Z,10.98
2018-11-03T13:10:19.518Z,11.15
2018-11-03T13:12:46.663Z,10.93
2018-11-03T13:15:13.906Z,10.63
2018-11-03T13:17:41.076Z,11.90
2018-11-03T13:20:09.652Z,11.75
2018-11-03T13:22:36.859Z,12.28
2018-11-03T13:25:04.579Z,11.90
2018-11-03T13:27:31.721Z,11.63
2018-11-03T13:29:58.892Z,11.00
2018-11-03T13:32:26.049Z,12.10
2018-11-03T13:34:53.315Z,11.60
2018-11-03T13:37:20.380Z,11.50
2018-11-03T13:39:47.540Z,11.88
2018-11-03T13:42:14.709Z,12.55
2018-11-03T13:44:41.955Z,11.48
2018-11-03T13:47:09.205Z,12.88
2018-11-03T13:49:36.365Z,12.90
2018-11-03T13:52:03.560Z,12.35
2018-11-03T13:54:30.740Z,12.90
2018-11-03T13:56:58.007Z,13.28
2018-11-03T13:59:25.157Z,12.53
2018-11-03T14:01:52.357Z,12.93
2018-11-03T14:04:19.637Z,12.13
2018-11-03T14:06:46.832Z,13.03
2018-11-03T14:09:13.992Z,13.10
2018-11-03T14:11:41.181Z,13.15
2018-11-03T14:14:08.348Z,12.95
2018-11-03T14:16:35.557Z,12.65
2018-11-03T14:19:02.773Z,13.40
2018-11-03T14:21:30.014Z,12.77
2018-11-03T14:23:57.220Z,14.17
2018-11-03T14:26:24.426Z,13.93
2018-11-03T14:28:51.638Z,12.57
2018-11-03T14:31:18.818Z,14.27
2018-11-03T14:33:45.989Z,13.80
2018-11-03T14:36:13.243Z,13.70
2018-11-03T14:38:40.340Z,14.73
2018-11-03T14:41:07.512Z,13.80
2018-11-03T14:43:34.681Z,13.77
2018-11-03T14:46:01.911Z,14.37
2018-11-03T14:48:29.033Z,13.27
2018-11-03T14:50:56.277Z,14.27
2018-11-03T14:53:23.503Z,13.03
2018-11-03T14:55:50.617Z,13.43
2018-11-03T14:58:17.789Z,13.60
2018-11-03T15:00:44.973Z,13.97
2018-11-03T15:03:12.133Z,14.03
2018-11-03T15:05:39.327Z,14.13
2018-11-03T15:08:06.480Z,14.33
2018-11-03T15:10:33.683Z,13.40
2018-11-03T15:13:00.834Z,15.10
2018-11-03T15:15:28.048Z,14.57
2018-11-03T15:17:55.237Z,14.60
2018-11-03T15:20:22.423Z,14.00
2018-11-03T15:22:49.623Z,15.43
2018-11-03T15:25:16.805Z,14.10
2018-11-03T15:27:43.982Z,13.53
2018-11-03T15:30:12.244Z,15.50
2018-11-03T15:32:39.898Z,14.93
2018-11-03T15:35:07.406Z,14.50
2018-11-03T15:37:34.430Z,15.30
2018-11-03T15:40:01.722Z,15.07
2018-11-03T15:42:28.809Z,13.77
2018-11-03T15:44:56.020Z,13.97
2018-11-03T15:47:23.206Z,15.53
2018-11-03T15:49:50.380Z,15.93
2018-11-03T15:52:17.561Z,14.60
2018-11-03T15:54:44.753Z,14.60
2018-11-03T15:57:11.978Z,14.47
2018-11-03T15:59:39.152Z,14.40
2018-11-03T16:02:06.340Z,14.23
2018-11-03T16:04:33.527Z,14.23
2018-11-03T16:07:00.702Z,14.00
2018-11-03T16:09:27.852Z,14.73
2018-11-03T16:11:55.072Z,15.37
2018-11-03T16:14:22.224Z,15.77
2018-11-03T16:16:49.400Z,14.70
2018-11-03T16:19:16.578Z,15.33
2018-11-03T16:21:43.748Z,15.20
2018-11-03T16:24:10.931Z,14.97
2018-11-03T16:26:38.150Z,14.20
2018-11-03T16:29:05.338Z,14.57
2018-11-03T16:31:32.483Z,15.00
2018-11-03T16:33:59.673Z,13.80
2018-11-03T16:36:26.881Z,14.80
2018-11-03T16:38:54.021Z,15.87
2018-11-03T16:41:21.190Z,17.27
2018-11-03T16:43:48.376Z,16.13
2018-11-03T16:46:15.550Z,15.83
2018-11-03T16:48:42.706Z,15.93
2018-11-03T16:51:09.909Z,17.27
2018-11-03T16:53:37.129Z,16.40
2018-11-03T16:56:04.304Z,16.40
2018-11-03T16:58:31.530Z,16.17
2018-11-03T17:00:58.673Z,16.20
2018-11-03T17:03:25.933Z,16.37
2018-11-03T17:05:53.152Z,17.60
2018-11-03T17:08:20.318Z,22.70
2018-11-03T17:10:47.492Z,18.50
2018-11-03T17:13:14.633Z,19.47
2018-11-03T17:15:41.823Z,18.87
2018-11-03T17:18:08.974Z,18.60
2018-11-03T17:20:36.237Z,23.13
2018-11-03T17:23:03.507Z,18.80
2018-11-03T17:25:30.633Z,17.63
2018-11-03T17:27:57.938Z,20.33
2018-11-03T17:30:25.184Z,19.50
2018-11-03T17:32:52.397Z,20.73
2018-11-03T17:35:19.574Z,19.20
2018-11-03T17:37:46.739Z,19.60
2018-11-03T17:40:13.976Z,21.03
2018-11-03T17:42:41.135Z,18.30
2018-11-03T17:45:09.059Z,18.93
2018-11-03T17:47:36.263Z,17.03
2018-11-03T17:50:03.855Z,19.33
2018-11-03T17:52:31.025Z,19.60
2018-11-03T17:54:58.284Z,33.60
2018-11-03T17:57:25.344Z,20.77
2018-11-03T17:59:52.524Z,19.60
2018-11-03T18:02:19.769Z,19.93
2018-11-03T18:04:46.919Z,20.63
2018-11-03T18:07:14.108Z,23.63
2018-11-03T18:09:41.276Z,28.63
2018-11-03T18:12:08.484Z,31.67
2018-11-03T18:14:35.712Z,24.83
2018-11-03T18:17:02.898Z,24.33
2018-11-03T18:19:30.104Z,24.03
2018-11-03T18:21:57.268Z,19.83
2018-11-03T18:24:24.432Z,21.70
2018-11-03T18:26:51.616Z,19.53
2018-11-03T18:29:18.824Z,20.30
2018-11-03T18:31:45.989Z,21.07
2018-11-03T18:34:13.741Z,20.53
2018-11-03T18:36:40.927Z,20.07
2018-11-03T18:39:08.896Z,20.77
2018-11-03T18:41:36.153Z,20.27
2018-11-03T18:44:03.272Z,21.30
2018-11-03T18:46:30.545Z,20.23
2018-11-03T18:48:57.677Z,20.00
2018-11-03T18:51:24.844Z,20.37
2018-11-03T18:53:51.977Z,20.67
2018-11-03T18:56:19.137Z,18.37
2018-11-03T18:58:46.395Z,19.93
2018-11-03T19:01:13.557Z,19.60
2018-11-03T19:03:40.901Z,19.43
2018-11-03T19:06:08.119Z,18.93
2018-11-03T19:08:35.605Z,19.67
2018-11-03T19:11:02.913Z,18.63
2018-11-03T19:13:30.070Z,19.87
2018-11-03T19:15:57.220Z,20.40
2018-11-03T19:18:24.384Z,19.27
2018-11-03T19:20:51.561Z,18.60
2018-11-03T19:23:18.797Z,19.93
2018-11-03T19:25:45.889Z,19.43
2018-11-03T19:28:13.068Z,18.80
2018-11-03T19:30:40.245Z,18.23
2018-11-03T19:33:07.450Z,17.00
2018-11-03T19:35:34.596Z,16.53
2018-11-03T19:38:01.769Z,16.27
2018-11-03T19:40:28.920Z,16.10
2018-11-03T19:42:56.087Z,17.07
2018-11-03T19:45:23.302Z,17.47
2018-11-03T19:47:50.414Z,18.70
2018-11-03T19:50:17.563Z,16.70
2018-11-03T19:52:44.741Z,17.10
2018-11-03T19:55:11.881Z,17.37
2018-11-03T19:57:39.032Z,18.60
2018-11-03T20:00:08.719Z,17.87
2018-11-03T20:02:35.913Z,20.43
2018-11-03T20:05:03.214Z,18.90
2018-11-03T20:07:30.380Z,21.43
2018-11-03T20:09:57.581Z,18.37
2018-11-03T20:12:24.756Z,19.90
2018-11-03T20:14:51.957Z,20.60
2018-11-03T20:17:19.117Z,21.50
2018-11-03T20:19:46.284Z,19.77
2018-11-03T20:22:13.510Z,21.40
2018-11-03T20:24:40.668Z,21.50
2018-11-03T20:27:07.832Z,19.43
2018-11-03T20:29:34.992Z,19.70
2018-11-03T20:32:02.219Z,17.67
2018-11-03T20:34:29.521Z,18.47
2018-11-03T20:36:56.692Z,18.53
2018-11-03T20:39:23.825Z,18.00
2018-11-03T20:41:50.993Z,17.77
2018-11-03T20:44:18.201Z,19.10
2018-11-03T20:46:45.353Z,17.53
2018-11-03T20:49:12.515Z,17.67
2018-11-03T20:51:39.676Z,18.47
2018-11-03T20:54:06.850Z,18.10
2018-11-03T20:56:34.020Z,18.43
2018-11-03T20:59:01.186Z,17.47
2018-11-03T21:01:28.324Z,18.33
2018-11-03T21:03:55.485Z,18.03
2018-11-03T21:06:22.615Z,18.37
2018-11-03T21:08:49.776Z,17.30
2018-11-03T21:11:16.933Z,17.70
2018-11-03T21:13:44.114Z,17.60
2018-11-03T21:16:11.308Z,18.90
2018-11-03T21:18:38.484Z,17.70
2018-11-03T21:21:05.628Z,18.40
2018-11-03T21:23:32.873Z,17.27
2018-11-03T21:25:59.950Z,17.73
2018-11-03T21:28:27.120Z,17.77
2018-11-03T21:30:54.251Z,19.50
2018-11-03T21:33:21.566Z,17.70
2018-11-03T21:35:48.600Z,18.77
2018-11-03T21:38:15.814Z,18.53
2018-11-03T21:40:42.930Z,18.30
2018-11-03T21:43:10.097Z,17.57
2018-11-03T21:45:37.289Z,18.63
2018-11-03T21:48:04.490Z,18.63
2018-11-03T21:50:31.656Z,20.47
2018-11-03T21:52:58.881Z,18.13
2018-11-03T21:55:26.061Z,16.27
2018-11-03T21:57:53.211Z,17.70
2018-11-03T22:00:20.353Z,18.27
2018-11-03T22:02:47.512Z,17.93
2018-11-03T22:05:14.673Z,18.13
2018-11-03T22:07:42.630Z,17.67
2018-11-03T22:10:10.178Z,17.80
2018-11-03T22:12:37.356Z,17.30
2018-11-03T22:15:04.967Z,18.53
2018-11-03T22:17:32.117Z,19.63
2018-11-03T22:19:59.300Z,17.50
2018-11-03T22:22:26.473Z,19.20
2018-11-03T22:24:53.627Z,18.80
2018-11-03T22:27:20.817Z,19.90
2018-11-03T22:29:47.944Z,18.43
2018-11-03T22:32:15.203Z,19.37
2018-11-03T22:34:42.324Z,18.73
2018-11-03T22:37:09.545Z,19.60
2018-11-03T22:39:36.737Z,19.77
2018-11-03T22:42:04.395Z,19.17
2018-11-03T22:44:31.557Z,18.97
2018-11-03T22:46:58.725Z,19.37
2018-11-03T22:49:25.883Z,20.67
2018-11-03T22:51:53.123Z,20.40
2018-11-03T22:54:20.289Z,18.70
2018-11-03T22:56:47.457Z,19.67
2018-11-03T22:59:14.638Z,18.47
2018-11-03T23:01:41.807Z,20.00
2018-11-03T23:04:08.957Z,19.53
2018-11-03T23:06:36.105Z,19.93
2018-11-03T23:09:04.435Z,18.47
2018-11-03T23:11:31.610Z,19.83
2018-11-03T23:13:59.606Z,18.63
2018-11-03T23:16:26.805Z,20.03
2018-11-03T23:18:53.975Z,19.63
2018-11-03T23:21:21.133Z,18.83
2018-11-03T23:23:48.316Z,19.10
2018-11-03T23:26:15.501Z,19.43
2018-11-03T23:28:42.676Z,18.87
2018-11-03T23:31:09.833Z,20.17
2018-11-03T23:33:36.993Z,19.60
2018-11-03T23:36:04.326Z,19.70
2018-11-03T23:38:31.508Z,20.53
2018-11-03T23:40:58.707Z,20.43
2018-11-03T23:43:25.886Z,19.17
2018-11-03T23:45:53.071Z,19.47
2018-11-03T23:48:20.253Z,20.83
2018-11-03T23:50:47.417Z,19.07
2018-11-03T23:53:14.590Z,19.57
2018-11-03T23:55:41.758Z,18.93
2018-11-03T23:58:08.901Z,18.93
